Main page
METAR-TAF:

METAR-TAF

Airports :

Norwich, England

Norwich Airport

latitude: 52-38N, longitude: 001-18E, elevation: 14 m

Current weather observation

The report was made 19 minutes ago, at 06:50 UTC
Wind 14 kt from the West
Temperature 14°C
Humidity 88%
Pressure 1013 hPa
Visibility 10 km or more
Few clouds at a height of 1200 ft

METAR: EGSH 190650Z 27014KT 9999 FEW012 14/12 Q1013 NOSIG

Time: 08:09 (07:09 UTC)

Forecast

The report was made 2 hours and 11 minutes ago, at 04:58 UTC
Forecast valid from 19 at 06 UTC to 19 at 15 UTC
Wind 10 kt from the West
Visibility 10 km or more
Scattered clouds at a height of 2500 ft
Temporary
from 19 at 09 UTC to 19 at 15 UTC
Wind 15 kt from the West with gusts up to 25 kt
Probability 30% :
Temporary
from 19 at 11 UTC to 19 at 15 UTC
Visibility: 9000 m
light rain showers

TAF: EGSH 190458Z 1906/1915 27010KT 9999 SCT025 TEMPO 1909/1915 27015G25KT PROB30 TEMPO 1911/1915 9000 -SHRA

Weather observations and forecasts of more than 4000 airports (METAR and TAF reports).

The available stations are represented by yellow and red dots on the map.

Hover mouse over dot to see the name of the station.

Then click to see weather observations and forecasts.

To change the map : click on the green buttons with a black cross to zoom in, on the green button with a dash to zoom out, or on the green arrows for adjacent maps.


METAR-TAF: